createdAt,value
2023-03-21T00:00:02.390Z,0.00
2023-03-21T00:01:01.315Z,0.00
2023-03-21T00:02:01.340Z,0.00
2023-03-21T00:03:01.396Z,0.00
2023-03-21T00:04:01.355Z,0.00
2023-03-21T00:05:13.304Z,0.00
2023-03-21T00:06:02.298Z,0.00
2023-03-21T00:07:01.238Z,0.00
2023-03-21T00:08:02.663Z,0.00
2023-03-21T00:09:01.232Z,0.00
2023-03-21T00:10:12.371Z,0.00
2023-03-21T00:11:02.258Z,0.00
2023-03-21T00:12:01.229Z,0.00
2023-03-21T00:13:01.226Z,0.00
2023-03-21T00:14:01.186Z,0.00
2023-03-21T00:15:01.225Z,0.00
2023-03-21T00:16:07.534Z,0.00
2023-03-21T00:17:02.178Z,0.00
2023-03-21T00:18:01.146Z,0.00
2023-03-21T00:19:01.171Z,0.00
2023-03-21T00:20:01.149Z,0.00
2023-03-21T00:21:29.417Z,0.00
2023-03-21T00:22:07.860Z,0.00
2023-03-21T00:23:02.113Z,0.00
2023-03-21T00:24:01.075Z,0.00
2023-03-21T00:25:01.120Z,0.00
2023-03-21T00:26:01.136Z,0.00
2023-03-21T00:27:21.961Z,0.00
2023-03-21T00:29:02.131Z,0.00
2023-03-21T00:30:01.045Z,0.00
2023-03-21T00:31:01.203Z,0.00
2023-03-21T00:32:00.999Z,0.00
2023-03-21T00:33:05.912Z,0.00
2023-03-21T00:34:01.953Z,0.00
2023-03-21T00:35:18.718Z,0.00
2023-03-21T00:36:06.763Z,0.00
2023-03-21T00:37:01.976Z,0.00
2023-03-21T00:38:00.978Z,0.00
2023-03-21T00:39:01.049Z,0.00
2023-03-21T00:40:01.257Z,0.00
2023-03-21T00:41:04.854Z,0.00
2023-03-21T00:42:01.981Z,0.00
2023-03-21T00:43:00.884Z,0.00
2023-03-21T00:44:00.845Z,0.00
2023-03-21T00:45:00.833Z,0.00
2023-03-21T00:46:00.847Z,0.00
2023-03-21T00:47:07.629Z,0.00
2023-03-21T00:48:01.976Z,0.00
2023-03-21T00:49:00.822Z,0.00
2023-03-21T00:50:00.815Z,0.00
2023-03-21T00:51:00.828Z,0.00
2023-03-21T00:52:14.758Z,0.00
2023-03-21T00:53:01.754Z,0.00
2023-03-21T00:54:00.749Z,0.00
2023-03-21T00:55:00.771Z,0.00
2023-03-21T00:56:00.736Z,0.00
2023-03-21T00:57:00.732Z,0.00
2023-03-21T00:58:02.488Z,0.00
2023-03-21T00:59:00.714Z,0.00
2023-03-21T01:00:00.730Z,0.00
2023-03-21T01:01:00.774Z,0.00
2023-03-21T01:02:00.807Z,0.00
2023-03-21T01:03:08.520Z,0.00
2023-03-21T01:04:01.663Z,0.00
2023-03-21T01:05:00.648Z,0.00
2023-03-21T01:06:00.643Z,0.00
2023-03-21T01:07:00.631Z,0.00
2023-03-21T01:08:01.810Z,0.00
2023-03-21T01:09:00.589Z,0.00
2023-03-21T01:10:00.600Z,0.00
2023-03-21T01:11:00.592Z,0.00
2023-03-21T01:12:00.653Z,0.00
2023-03-21T01:13:00.545Z,0.00
2023-03-21T01:14:14.749Z,0.00
2023-03-21T01:15:01.578Z,0.00
2023-03-21T01:16:00.656Z,0.00
2023-03-21T01:17:00.567Z,0.00
2023-03-21T01:18:00.510Z,0.00
2023-03-21T01:19:01.150Z,0.00
2023-03-21T01:20:00.504Z,0.00
2023-03-21T01:21:00.459Z,0.00
2023-03-21T01:22:00.490Z,0.00
2023-03-21T01:23:00.460Z,0.00
2023-03-21T01:24:00.460Z,0.00
2023-03-21T01:25:12.091Z,0.00
2023-03-21T01:26:01.427Z,0.00
2023-03-21T01:27:00.434Z,0.00
2023-03-21T01:28:00.442Z,0.00
2023-03-21T01:29:00.390Z,0.00
2023-03-21T01:30:00.379Z,0.00
2023-03-21T01:31:00.349Z,0.00
2023-03-21T01:32:00.402Z,0.00
2023-03-21T01:33:00.353Z,0.00
2023-03-21T01:34:00.349Z,0.00
2023-03-21T01:35:00.335Z,0.00
2023-03-21T01:36:12.346Z,0.00
2023-03-21T01:37:01.360Z,0.00
2023-03-21T01:38:00.294Z,0.00
2023-03-21T01:39:00.291Z,0.00
2023-03-21T01:40:00.283Z,0.00
2023-03-21T01:41:00.550Z,0.00
2023-03-21T01:42:00.233Z,0.00
2023-03-21T01:43:00.245Z,0.00
2023-03-21T01:44:00.226Z,0.00
2023-03-21T01:45:00.197Z,0.00
2023-03-21T01:46:00.247Z,0.00
2023-03-21T01:47:11.512Z,0.00
2023-03-21T01:48:01.253Z,0.00
2023-03-21T01:49:00.213Z,0.00
2023-03-21T01:50:00.192Z,0.00
2023-03-21T01:51:00.178Z,0.00
2023-03-21T01:52:06.649Z,0.00
2023-03-21T01:53:01.178Z,0.00
2023-03-21T01:54:00.155Z,0.00
2023-03-21T01:55:00.112Z,0.00
2023-03-21T01:56:00.112Z,0.00
2023-03-21T01:57:00.070Z,0.00
2023-03-21T01:58:06.255Z,0.00
2023-03-21T01:59:01.073Z,0.00
2023-03-21T02:00:00.041Z,0.00
2023-03-21T02:01:00.095Z,0.00
2023-03-21T02:02:00.063Z,0.00
2023-03-21T02:03:11.131Z,0.00
2023-03-21T02:04:01.093Z,0.00
2023-03-21T02:05:00.007Z,0.00
2023-03-21T02:05:59.965Z,0.00
2023-03-21T02:07:00.033Z,0.00
2023-03-21T02:08:00.000Z,0.00
2023-03-21T02:08:59.971Z,0.00
2023-03-21T02:09:59.982Z,0.00
2023-03-21T02:10:59.929Z,0.00
2023-03-21T02:11:59.963Z,0.00
2023-03-21T02:12:59.940Z,0.00
2023-03-21T02:14:06.116Z,0.00
2023-03-21T02:15:00.955Z,0.00
2023-03-21T02:15:59.949Z,0.00
2023-03-21T02:16:59.991Z,0.00
2023-03-21T02:18:00.165Z,0.00
2023-03-21T02:19:00.005Z,0.00
2023-03-21T02:20:00.005Z,0.00
2023-03-21T02:20:59.846Z,0.00
2023-03-21T02:21:59.894Z,0.00
2023-03-21T02:22:59.828Z,0.00
2023-03-21T02:24:00.029Z,0.00
2023-03-21T02:25:04.211Z,0.00
2023-03-21T02:26:00.858Z,0.00
2023-03-21T02:27:04.312Z,0.00
2023-03-21T02:27:59.800Z,0.00
2023-03-21T02:28:59.760Z,0.00
2023-03-21T02:29:59.764Z,0.00
2023-03-21T02:30:59.790Z,0.00
2023-03-21T02:32:09.316Z,0.00
2023-03-21T02:33:00.714Z,0.00
2023-03-21T02:33:59.689Z,0.00
2023-03-21T02:35:00.747Z,0.00
2023-03-21T02:36:05.611Z,0.00
2023-03-21T02:37:00.700Z,0.00
2023-03-21T02:38:00.878Z,0.00
2023-03-21T02:38:59.665Z,0.00
2023-03-21T02:39:59.639Z,0.00
2023-03-21T02:41:01.772Z,0.00
2023-03-21T02:41:59.624Z,0.00
2023-03-21T02:43:01.279Z,0.00
2023-03-21T02:43:59.661Z,0.00
2023-03-21T02:44:59.591Z,0.00
2023-03-21T02:45:59.630Z,0.00
2023-03-21T02:47:05.917Z,0.00
2023-03-21T02:48:00.607Z,0.00
2023-03-21T02:48:59.560Z,0.00
2023-03-21T02:49:59.544Z,0.00
2023-03-21T02:50:59.652Z,0.00
2023-03-21T02:52:05.429Z,0.00
2023-03-21T02:53:00.510Z,0.00
2023-03-21T02:54:22.179Z,0.00
2023-03-21T02:55:00.551Z,0.00
2023-03-21T02:55:59.480Z,0.00
2023-03-21T02:56:59.455Z,0.00
2023-03-21T02:58:11.730Z,0.00
2023-03-21T02:59:00.477Z,0.00
2023-03-21T03:00:07.540Z,0.00
2023-03-21T03:01:00.447Z,0.00
2023-03-21T03:01:59.438Z,0.00
2023-03-21T03:03:08.630Z,0.00
2023-03-21T03:04:00.510Z,0.00
2023-03-21T03:04:59.372Z,0.00
2023-03-21T03:05:59.339Z,0.00
2023-03-21T03:06:59.360Z,0.00
2023-03-21T03:07:59.399Z,0.00
2023-03-21T03:09:02.703Z,0.00
2023-03-21T03:09:59.341Z,0.00
2023-03-21T03:10:59.432Z,0.00
2023-03-21T03:11:59.320Z,0.00
2023-03-21T03:12:59.280Z,0.00
2023-03-21T03:13:59.261Z,0.00
2023-03-21T03:15:03.538Z,0.00
2023-03-21T03:15:59.327Z,0.00
2023-03-21T03:16:59.251Z,0.00
2023-03-21T03:17:59.271Z,0.00
2023-03-21T03:18:59.271Z,0.00
2023-03-21T03:20:04.258Z,0.00
2023-03-21T03:21:00.205Z,0.00
2023-03-21T03:21:59.192Z,0.00
2023-03-21T03:22:59.214Z,0.00
2023-03-21T03:23:59.194Z,0.00
2023-03-21T03:25:02.782Z,0.00
2023-03-21T03:26:00.210Z,0.00
2023-03-21T03:26:59.123Z,0.00
2023-03-21T03:27:59.164Z,0.00
2023-03-21T03:28:59.124Z,0.00
2023-03-21T03:29:59.220Z,0.00
2023-03-21T03:31:08.611Z,0.00
2023-03-21T03:32:00.126Z,0.00
2023-03-21T03:32:59.086Z,0.00
2023-03-21T03:33:59.087Z,0.00
2023-03-21T03:34:59.048Z,0.00
2023-03-21T03:36:06.245Z,0.00
2023-03-21T03:37:00.089Z,0.00
2023-03-21T03:37:59.064Z,0.00
2023-03-21T03:38:59.009Z,0.00
2023-03-21T03:39:59.005Z,0.00
2023-03-21T03:40:59.042Z,0.00
2023-03-21T03:42:12.453Z,0.00
2023-03-21T03:42:59.977Z,0.00
2023-03-21T03:43:58.955Z,0.00
2023-03-21T03:44:58.926Z,0.00
2023-03-21T03:45:58.977Z,0.00
2023-03-21T03:46:58.915Z,0.00
2023-03-21T03:47:58.952Z,0.00
2023-03-21T03:48:58.907Z,0.00
2023-03-21T03:49:58.878Z,0.00
2023-03-21T03:50:58.926Z,0.00
2023-03-21T03:51:58.875Z,0.00
2023-03-21T03:53:01.207Z,0.00
2023-03-21T03:53:58.832Z,0.00
2023-03-21T03:54:58.867Z,0.00
2023-03-21T03:55:58.823Z,0.00
2023-03-21T03:56:58.809Z,0.00
2023-03-21T03:57:58.799Z,0.00
2023-03-21T03:58:58.829Z,0.00
2023-03-21T03:59:58.763Z,0.00
2023-03-21T04:00:58.772Z,0.00
2023-03-21T04:01:58.743Z,0.00
2023-03-21T04:02:58.786Z,0.00
2023-03-21T04:04:12.250Z,0.00
2023-03-21T04:04:59.753Z,0.00
2023-03-21T04:05:58.708Z,0.00
2023-03-21T04:06:58.727Z,0.00
2023-03-21T04:07:58.734Z,0.00
2023-03-21T04:09:00.137Z,0.00
2023-03-21T04:09:58.670Z,0.00
2023-03-21T04:10:58.645Z,0.00
2023-03-21T04:11:58.652Z,0.00
2023-03-21T04:12:58.674Z,0.00
2023-03-21T04:13:58.643Z,0.00
2023-03-21T04:15:08.157Z,0.00
2023-03-21T04:15:59.696Z,0.00
2023-03-21T04:16:58.615Z,0.00
2023-03-21T04:17:58.594Z,0.00
2023-03-21T04:18:58.607Z,0.00
2023-03-21T04:20:10.969Z,0.00
2023-03-21T04:20:59.588Z,0.00
2023-03-21T04:21:58.528Z,0.00
2023-03-21T04:22:58.545Z,0.00
2023-03-21T04:23:58.620Z,0.00
2023-03-21T04:25:00.261Z,0.00
2023-03-21T04:25:58.515Z,0.00
2023-03-21T04:26:58.522Z,0.00
2023-03-21T04:27:58.484Z,0.00
2023-03-21T04:28:58.505Z,0.00
2023-03-21T04:29:58.493Z,0.00
2023-03-21T04:31:03.687Z,0.00
2023-03-21T04:31:59.465Z,0.00
2023-03-21T04:32:58.418Z,0.00
2023-03-21T04:33:58.391Z,1.00
2023-03-21T04:34:58.408Z,0.00
2023-03-21T04:35:58.425Z,0.00
2023-03-21T04:36:58.373Z,0.00
2023-03-21T04:37:58.380Z,1.00
2023-03-21T04:38:58.351Z,1.00
2023-03-21T04:39:58.278Z,1.00
2023-03-21T04:40:58.268Z,1.00
2023-03-21T04:41:58.267Z,2.00
2023-03-21T04:42:58.277Z,2.00
2023-03-21T04:43:58.361Z,1.00
2023-03-21T04:44:58.383Z,1.00
2023-03-21T04:45:58.290Z,2.00
2023-03-21T04:46:58.226Z,1.00
2023-03-21T04:47:58.267Z,1.00
2023-03-21T04:48:58.197Z,2.00
2023-03-21T04:49:58.175Z,3.00
2023-03-21T04:50:58.227Z,4.00
2023-03-21T04:51:58.147Z,4.00
2023-03-21T04:52:58.209Z,3.00
2023-03-21T04:53:58.179Z,5.00
2023-03-21T04:54:58.208Z,7.00
2023-03-21T04:55:58.162Z,14.00
2023-03-21T04:56:58.177Z,14.00
2023-03-21T04:57:58.110Z,15.00
2023-03-21T04:58:58.118Z,14.00
2023-03-21T04:59:58.076Z,13.00
2023-03-21T05:00:58.144Z,21.00
2023-03-21T05:01:58.092Z,25.00
2023-03-21T05:02:58.048Z,26.00
2023-03-21T05:03:58.142Z,28.00
2023-03-21T05:04:58.041Z,30.00
2023-03-21T05:05:58.848Z,32.00
2023-03-21T05:06:58.022Z,40.00
2023-03-21T05:07:58.002Z,45.00
2023-03-21T05:08:57.967Z,49.00
2023-03-21T05:09:57.980Z,53.00
2023-03-21T05:10:57.997Z,53.00
2023-03-21T05:11:58.010Z,61.00
2023-03-21T05:12:57.949Z,65.00
2023-03-21T05:13:57.925Z,72.00
2023-03-21T05:14:57.944Z,75.00
2023-03-21T05:15:57.894Z,81.00
2023-03-21T05:16:57.976Z,84.00
2023-03-21T05:17:57.880Z,91.00
2023-03-21T05:18:57.858Z,106.00
2023-03-21T05:19:57.869Z,124.00
2023-03-21T05:20:57.859Z,145.00
2023-03-21T05:21:57.899Z,161.00
2023-03-21T05:22:57.824Z,174.00
2023-03-21T05:23:57.809Z,203.00
2023-03-21T05:24:57.853Z,226.00
2023-03-21T05:25:57.863Z,254.00
2023-03-21T05:26:58.369Z,265.00
2023-03-21T05:27:57.782Z,273.00
2023-03-21T05:28:57.773Z,280.00
2023-03-21T05:29:57.760Z,305.00
2023-03-21T05:30:57.826Z,323.00
2023-03-21T05:31:57.725Z,332.00
2023-03-21T05:32:57.743Z,338.00
2023-03-21T05:33:57.744Z,348.00
2023-03-21T05:34:57.742Z,374.00
2023-03-21T05:35:57.734Z,422.00
2023-03-21T05:36:57.669Z,508.00
2023-03-21T05:37:57.671Z,594.00
2023-03-21T05:38:57.688Z,616.00
2023-03-21T05:39:57.683Z,634.00
2023-03-21T05:40:57.631Z,650.00
2023-03-21T05:41:57.683Z,668.00
2023-03-21T05:42:57.750Z,683.00
2023-03-21T05:43:57.654Z,678.00
2023-03-21T05:44:57.630Z,683.00
2023-03-21T05:45:57.605Z,720.00
2023-03-21T05:46:57.770Z,743.00
2023-03-21T05:47:57.672Z,704.00
2023-03-21T05:48:57.544Z,669.00
2023-03-21T05:49:57.564Z,665.00
2023-03-21T05:50:57.537Z,668.00
2023-03-21T05:51:57.538Z,684.00
2023-03-21T05:52:57.568Z,699.00
2023-03-21T05:53:57.658Z,680.00
2023-03-21T05:54:57.495Z,632.00
2023-03-21T05:55:57.491Z,624.00
2023-03-21T05:56:57.517Z,704.00
2023-03-21T05:57:57.470Z,760.00
2023-03-21T05:58:57.467Z,776.00
2023-03-21T05:59:57.549Z,794.00
2023-03-21T06:00:57.517Z,843.00
2023-03-21T06:01:57.417Z,924.00
2023-03-21T06:02:57.470Z,1007.00
2023-03-21T06:03:57.483Z,1049.00
2023-03-21T06:04:57.413Z,1054.00
2023-03-21T06:05:57.470Z,998.00
2023-03-21T06:06:57.388Z,913.00
2023-03-21T06:07:57.395Z,863.00
2023-03-21T06:08:57.403Z,811.00
2023-03-21T06:09:57.332Z,772.00
2023-03-21T06:10:57.346Z,720.00
2023-03-21T06:11:57.308Z,674.00
2023-03-21T06:12:57.307Z,655.00
2023-03-21T06:13:57.285Z,672.00
2023-03-21T06:14:57.283Z,683.00
2023-03-21T06:15:57.367Z,667.00
2023-03-21T06:16:57.301Z,638.00
2023-03-21T06:17:57.352Z,614.00
2023-03-21T06:18:57.374Z,592.00
2023-03-21T06:19:57.253Z,562.00
2023-03-21T06:20:57.278Z,569.00
2023-03-21T06:21:57.246Z,554.00
2023-03-21T06:22:57.285Z,535.00
2023-03-21T06:23:57.291Z,579.00
2023-03-21T06:24:57.185Z,631.00
2023-03-21T06:25:57.226Z,656.00
2023-03-21T06:26:57.208Z,648.00
2023-03-21T06:27:57.157Z,664.00
2023-03-21T06:28:57.152Z,765.00
2023-03-21T06:29:57.142Z,848.00
2023-03-21T06:30:57.150Z,948.00
2023-03-21T06:31:57.318Z,1100.00
2023-03-21T06:32:57.165Z,1147.00
2023-03-21T06:33:57.137Z,1063.00
2023-03-21T06:34:57.150Z,1010.00
2023-03-21T06:35:57.166Z,936.00
2023-03-21T06:36:57.054Z,874.00
2023-03-21T06:37:57.091Z,833.00
2023-03-21T06:38:57.107Z,803.00
2023-03-21T06:39:56.993Z,835.00
2023-03-21T06:40:57.014Z,911.00
2023-03-21T06:41:57.039Z,953.00
2023-03-21T06:42:57.059Z,953.00
2023-03-21T06:43:56.987Z,929.00
2023-03-21T06:44:57.050Z,857.00
2023-03-21T06:45:56.963Z,823.00
2023-03-21T06:46:57.014Z,849.00
2023-03-21T06:47:56.982Z,888.00
2023-03-21T06:48:57.076Z,905.00
2023-03-21T06:49:56.914Z,937.00
2023-03-21T06:50:56.923Z,929.00
2023-03-21T06:51:56.875Z,965.00
2023-03-21T06:52:56.907Z,987.00
2023-03-21T06:53:56.889Z,982.00
2023-03-21T06:54:56.964Z,972.00
2023-03-21T06:55:56.928Z,1017.00
2023-03-21T06:56:56.917Z,1049.00
2023-03-21T06:57:56.980Z,1043.00
2023-03-21T06:58:56.831Z,1094.00
2023-03-21T06:59:56.821Z,1179.00
2023-03-21T07:00:56.814Z,1199.00
2023-03-21T07:01:56.785Z,1244.00
2023-03-21T07:02:56.877Z,1339.00
2023-03-21T07:03:56.761Z,1349.00
2023-03-21T07:04:56.793Z,1332.00
2023-03-21T07:05:56.893Z,1296.00
2023-03-21T07:06:56.774Z,1231.00
2023-03-21T07:07:56.740Z,1218.00
2023-03-21T07:08:56.703Z,1287.00
2023-03-21T07:09:56.683Z,1293.00
2023-03-21T07:10:56.709Z,1239.00
2023-03-21T07:11:56.710Z,1263.00
2023-03-21T07:12:56.677Z,1374.00
2023-03-21T07:13:56.666Z,1407.00
2023-03-21T07:14:56.687Z,1345.00
2023-03-21T07:15:56.705Z,1318.00
2023-03-21T07:16:56.757Z,1263.00
2023-03-21T07:17:56.661Z,1284.00
2023-03-21T07:18:56.639Z,1282.00
2023-03-21T07:19:56.694Z,1312.00
2023-03-21T07:20:56.796Z,1351.00
2023-03-21T07:21:56.603Z,1314.00
2023-03-21T07:22:56.696Z,1270.00
2023-03-21T07:23:56.724Z,1340.00
2023-03-21T07:25:04.770Z,1399.00
2023-03-21T07:25:57.604Z,1418.00
2023-03-21T07:26:56.508Z,1408.00
2023-03-21T07:27:56.526Z,1363.00
2023-03-21T07:28:56.498Z,1416.00
2023-03-21T07:29:56.537Z,1476.00
2023-03-21T07:30:56.496Z,1540.00
2023-03-21T07:31:56.541Z,1588.00
2023-03-21T07:32:56.545Z,1548.00
2023-03-21T07:33:56.437Z,1526.00
2023-03-21T07:34:56.506Z,1430.00
2023-03-21T07:35:56.512Z,1396.00
2023-03-21T07:36:56.422Z,1373.00
2023-03-21T07:37:56.386Z,1341.00
2023-03-21T07:38:56.447Z,1290.00
2023-03-21T07:39:56.386Z,1178.00
2023-03-21T07:40:56.405Z,1250.00
2023-03-21T07:41:56.497Z,1298.00
2023-03-21T07:42:56.409Z,1385.00
2023-03-21T07:43:56.511Z,1529.00
2023-03-21T07:44:56.331Z,1507.00
2023-03-21T07:45:56.376Z,1385.00
2023-03-21T07:46:56.332Z,1390.00
2023-03-21T07:47:56.330Z,1398.00
2023-03-21T07:48:56.278Z,1252.00
2023-03-21T07:49:56.273Z,1235.00
2023-03-21T07:50:56.278Z,1283.00
2023-03-21T07:51:56.407Z,1319.00
2023-03-21T07:52:56.420Z,1370.00
2023-03-21T07:53:56.305Z,1492.00
2023-03-21T07:54:56.260Z,1456.00
2023-03-21T07:55:56.334Z,1399.00
2023-03-21T07:56:56.181Z,1328.00
2023-03-21T07:57:56.223Z,1311.00
2023-03-21T07:58:56.192Z,1282.00
2023-03-21T07:59:56.197Z,1327.00
2023-03-21T08:00:56.204Z,1432.00
2023-03-21T08:01:56.194Z,1409.00
2023-03-21T08:02:58.763Z,1388.00
2023-03-21T08:03:56.525Z,1355.00
2023-03-21T08:04:56.110Z,1263.00
2023-03-21T08:05:56.392Z,1242.00
2023-03-21T08:06:56.169Z,1355.00
2023-03-21T08:07:56.086Z,1363.00
2023-03-21T08:08:56.127Z,1326.00
2023-03-21T08:09:56.072Z,1454.00
2023-03-21T08:10:56.148Z,1382.00
2023-03-21T08:11:56.115Z,1316.00
2023-03-21T08:12:56.023Z,1429.00
2023-03-21T08:13:56.063Z,1703.00
2023-03-21T08:14:56.050Z,1783.00
2023-03-21T08:15:56.023Z,1831.00
2023-03-21T08:16:56.078Z,1657.00
2023-03-21T08:17:55.963Z,1518.00
2023-03-21T08:18:55.955Z,1635.00
2023-03-21T08:19:56.078Z,1802.00
2023-03-21T08:20:56.043Z,1892.00
2023-03-21T08:21:55.943Z,2002.00
2023-03-21T08:22:55.959Z,2115.00
2023-03-21T08:23:55.945Z,2037.00
2023-03-21T08:24:56.045Z,2072.00
2023-03-21T08:25:55.923Z,2141.00
2023-03-21T08:26:55.898Z,2088.00
2023-03-21T08:27:55.898Z,2578.00
2023-03-21T08:28:55.896Z,2568.00
2023-03-21T08:29:55.926Z,2589.00
2023-03-21T08:30:55.865Z,2548.00
2023-03-21T08:31:55.876Z,2489.00
2023-03-21T08:32:55.840Z,2278.00
2023-03-21T08:33:55.836Z,2429.00
2023-03-21T08:34:55.803Z,2265.00
2023-03-21T08:35:55.834Z,1965.00
2023-03-21T08:36:55.776Z,1838.00
2023-03-21T08:37:55.753Z,1903.00
2023-03-21T08:38:55.754Z,2093.00
2023-03-21T08:39:55.872Z,2180.00
2023-03-21T08:40:55.791Z,2110.00
2023-03-21T08:41:55.760Z,2223.00
2023-03-21T08:42:55.875Z,2439.00
2023-03-21T08:43:55.707Z,2214.00
2023-03-21T08:44:55.753Z,2450.00
2023-03-21T08:45:55.694Z,2533.00
2023-03-21T08:46:55.657Z,3046.00
2023-03-21T08:47:55.725Z,3499.00
2023-03-21T08:48:55.643Z,3758.00
2023-03-21T08:49:57.926Z,3577.00
2023-03-21T08:50:55.630Z,3227.00
2023-03-21T08:51:55.602Z,3457.00
2023-03-21T08:52:55.660Z,3783.00
2023-03-21T08:53:55.595Z,3584.00
2023-03-21T08:54:55.625Z,3498.00
2023-03-21T08:55:55.603Z,3063.00
2023-03-21T08:56:55.645Z,2910.00
2023-03-21T08:57:55.669Z,3458.00
2023-03-21T08:58:55.525Z,3961.00
2023-03-21T08:59:55.603Z,4438.00
2023-03-21T09:00:55.503Z,4723.00
2023-03-21T09:01:55.558Z,3812.00
2023-03-21T09:02:55.575Z,3296.00
2023-03-21T09:03:55.524Z,3323.00
2023-03-21T09:04:55.503Z,3406.00
2023-03-21T09:05:55.490Z,2946.00
2023-03-21T09:06:55.443Z,2600.00
2023-03-21T09:07:55.592Z,2661.00
2023-03-21T09:08:55.395Z,2857.00
2023-03-21T09:10:08.405Z,3027.00
2023-03-21T09:10:56.445Z,3171.00
2023-03-21T09:11:55.520Z,3159.00
2023-03-21T09:12:55.527Z,2811.00
2023-03-21T09:13:55.412Z,2760.00
2023-03-21T09:14:55.426Z,2938.00
2023-03-21T09:15:55.436Z,2375.00
2023-03-21T09:16:55.381Z,2766.00
2023-03-21T09:17:55.365Z,2465.00
2023-03-21T09:18:55.333Z,2550.00
2023-03-21T09:19:55.329Z,2691.00
2023-03-21T09:20:55.328Z,2504.00
2023-03-21T09:21:55.268Z,2129.00
2023-03-21T09:22:55.286Z,1849.00
2023-03-21T09:23:55.263Z,2131.00
2023-03-21T09:24:55.261Z,2331.00
2023-03-21T09:25:55.239Z,2048.00
2023-03-21T09:26:55.238Z,2172.00
2023-03-21T09:27:55.243Z,2323.00
2023-03-21T09:28:55.325Z,2437.00
2023-03-21T09:29:55.198Z,2456.00
2023-03-21T09:30:55.271Z,2555.00
2023-03-21T09:31:55.269Z,2448.00
2023-03-21T09:32:55.316Z,2293.00
2023-03-21T09:33:55.172Z,2633.00
2023-03-21T09:34:55.167Z,2722.00
2023-03-21T09:35:55.252Z,3183.00
2023-03-21T09:36:55.222Z,2955.00
2023-03-21T09:37:55.234Z,2523.00
2023-03-21T09:38:55.119Z,2318.00
2023-03-21T09:39:55.071Z,2218.00
2023-03-21T09:40:55.148Z,2483.00
2023-03-21T09:41:55.135Z,2596.00
2023-03-21T09:42:55.130Z,2627.00
2023-03-21T09:43:55.151Z,3075.00
2023-03-21T09:44:55.136Z,3348.00
2023-03-21T09:45:55.061Z,3778.00
2023-03-21T09:46:55.104Z,3638.00
2023-03-21T09:47:55.056Z,3799.00
2023-03-21T09:48:57.416Z,3450.00
2023-03-21T09:50:01.689Z,3055.00
2023-03-21T09:50:56.052Z,2812.00
2023-03-21T09:51:54.954Z,2604.00
2023-03-21T09:52:54.966Z,2605.00
2023-03-21T09:53:56.965Z,2682.00
2023-03-21T09:54:54.977Z,2930.00
2023-03-21T09:55:55.021Z,2849.00
2023-03-21T09:56:54.928Z,3026.00
2023-03-21T09:57:54.899Z,3087.00
2023-03-21T09:58:54.919Z,2872.00
2023-03-21T09:59:54.910Z,2458.00
2023-03-21T10:00:55.068Z,2336.00
2023-03-21T10:01:54.851Z,2423.00
2023-03-21T10:02:57.364Z,2558.00
2023-03-21T10:03:54.850Z,2417.00
2023-03-21T10:04:54.884Z,2662.00
2023-03-21T10:05:54.821Z,2638.00
2023-03-21T10:06:54.874Z,2376.00
2023-03-21T10:07:54.843Z,2701.00
2023-03-21T10:08:57.032Z,2812.00
2023-03-21T10:09:54.806Z,2958.00
2023-03-21T10:10:54.851Z,2765.00
2023-03-21T10:11:54.829Z,2674.00
2023-03-21T10:12:55.058Z,2528.00
2023-03-21T10:13:54.789Z,2308.00
2023-03-21T10:14:57.492Z,2554.00
2023-03-21T10:15:54.741Z,3347.00
2023-03-21T10:16:54.851Z,3481.00
2023-03-21T10:17:54.674Z,3160.00
2023-03-21T10:18:54.669Z,2774.00
2023-03-21T10:19:54.734Z,2975.00
2023-03-21T10:20:54.663Z,3454.00
2023-03-21T10:22:03.697Z,3541.00
2023-03-21T10:22:55.668Z,3409.00
2023-03-21T10:23:54.680Z,3373.00
2023-03-21T10:24:54.638Z,3397.00
2023-03-21T10:25:54.634Z,2986.00
2023-03-21T10:26:54.660Z,3079.00
2023-03-21T10:27:54.603Z,3417.00
2023-03-21T10:28:54.604Z,3235.00
2023-03-21T10:29:54.566Z,3002.00
2023-03-21T10:30:54.564Z,3183.00
2023-03-21T10:31:54.637Z,3694.00
2023-03-21T10:32:54.670Z,3833.00
2023-03-21T10:33:54.509Z,3634.00
2023-03-21T10:34:57.567Z,3302.00
2023-03-21T10:35:54.571Z,3012.00
2023-03-21T10:36:54.495Z,2923.00
2023-03-21T10:37:54.489Z,2981.00
2023-03-21T10:38:54.518Z,2794.00
2023-03-21T10:39:54.463Z,2625.00
2023-03-21T10:40:54.508Z,2765.00
2023-03-21T10:41:55.369Z,2933.00
2023-03-21T10:42:54.520Z,3084.00
2023-03-21T10:43:54.390Z,3162.00
2023-03-21T10:44:54.408Z,3200.00
2023-03-21T10:45:54.765Z,3996.00
2023-03-21T10:46:54.749Z,4174.00
2023-03-21T10:47:54.757Z,4113.00
2023-03-21T10:48:54.464Z,4153.00
2023-03-21T10:50:07.374Z,3973.00
2023-03-21T10:50:55.399Z,4237.00
2023-03-21T10:51:54.313Z,4324.00
2023-03-21T10:52:54.345Z,4994.00
2023-03-21T10:53:54.337Z,5511.00
2023-03-21T10:54:54.311Z,4576.00
2023-03-21T10:55:54.295Z,4204.00
2023-03-21T10:56:54.282Z,4040.00
2023-03-21T10:57:54.263Z,4007.00
2023-03-21T10:58:54.254Z,3980.00
2023-03-21T10:59:54.309Z,3507.00
2023-03-21T11:00:54.295Z,3068.00
2023-03-21T11:01:54.209Z,2795.00
2023-03-21T11:02:54.255Z,2760.00
2023-03-21T11:03:54.242Z,2803.00
2023-03-21T11:04:54.215Z,3195.00
2023-03-21T11:05:54.185Z,3321.00
2023-03-21T11:06:54.175Z,3118.00
2023-03-21T11:07:54.145Z,3243.00
2023-03-21T11:08:54.173Z,3240.00
2023-03-21T11:09:54.174Z,3132.00
2023-03-21T11:10:54.129Z,2911.00
2023-03-21T11:11:54.175Z,2740.00
2023-03-21T11:12:54.119Z,2468.00
2023-03-21T11:13:54.939Z,2384.00
2023-03-21T11:14:54.093Z,2375.00
2023-03-21T11:15:54.082Z,2356.00
2023-03-21T11:16:54.120Z,2417.00
2023-03-21T11:17:54.059Z,2558.00
2023-03-21T11:18:54.050Z,2758.00
2023-03-21T11:19:54.065Z,3003.00
2023-03-21T11:20:54.033Z,3204.00
2023-03-21T11:21:54.001Z,3359.00
2023-03-21T11:22:54.000Z,3282.00
2023-03-21T11:23:54.012Z,3234.00
2023-03-21T11:24:53.982Z,2940.00
2023-03-21T11:25:53.975Z,2897.00
2023-03-21T11:26:53.971Z,3050.00
2023-03-21T11:27:53.964Z,3103.00
2023-03-21T11:28:53.958Z,3276.00
2023-03-21T11:29:53.948Z,3899.00
2023-03-21T11:30:53.973Z,4178.00
2023-03-21T11:31:53.909Z,4095.00
2023-03-21T11:32:53.887Z,4032.00
2023-03-21T11:33:53.974Z,3845.00
2023-03-21T11:34:53.927Z,3655.00
2023-03-21T11:35:53.875Z,3663.00
2023-03-21T11:36:53.841Z,3721.00
2023-03-21T11:37:53.886Z,3571.00
2023-03-21T11:38:53.862Z,3485.00
2023-03-21T11:39:53.810Z,3682.00
2023-03-21T11:40:53.904Z,3555.00
2023-03-21T11:41:53.794Z,3387.00
2023-03-21T11:42:53.781Z,3161.00
2023-03-21T11:43:53.818Z,3185.00
2023-03-21T11:44:53.758Z,3108.00
2023-03-21T11:45:53.783Z,3090.00
2023-03-21T11:46:54.414Z,3401.00
2023-03-21T11:47:53.776Z,3265.00
2023-03-21T11:48:53.732Z,3123.00
2023-03-21T11:50:04.194Z,3338.00
2023-03-21T11:50:54.715Z,3390.00
2023-03-21T11:51:53.701Z,3528.00
2023-03-21T11:52:53.682Z,3284.00
2023-03-21T11:53:53.736Z,3127.00
2023-03-21T11:54:53.646Z,3176.00
2023-03-21T11:55:53.643Z,3481.00
2023-03-21T11:56:53.675Z,3470.00
2023-03-21T11:57:54.832Z,3819.00
2023-03-21T11:58:53.704Z,3527.00
2023-03-21T11:59:53.601Z,3457.00
2023-03-21T12:00:53.613Z,3515.00
2023-03-21T12:01:53.621Z,3426.00
2023-03-21T12:02:53.698Z,3631.00
2023-03-21T12:03:54.789Z,3786.00
2023-03-21T12:04:53.599Z,3919.00
2023-03-21T12:05:53.552Z,4385.00
2023-03-21T12:06:53.509Z,5161.00
2023-03-21T12:07:53.532Z,4804.00
2023-03-21T12:08:53.556Z,4653.00
2023-03-21T12:09:53.584Z,4964.00
2023-03-21T12:10:53.498Z,5060.00
2023-03-21T12:11:53.506Z,4755.00
2023-03-21T12:12:53.543Z,4919.00
2023-03-21T12:13:53.473Z,4862.00
2023-03-21T12:14:53.611Z,4919.00
2023-03-21T12:15:55.426Z,4645.00
2023-03-21T12:16:54.477Z,4576.00
2023-03-21T12:17:54.113Z,4373.00
2023-03-21T12:18:54.882Z,4190.00
2023-03-21T12:19:53.416Z,4515.00
2023-03-21T12:20:53.442Z,4691.00
2023-03-21T12:21:54.821Z,4302.00
2023-03-21T12:22:53.384Z,3513.00
2023-03-21T12:23:53.358Z,3848.00
2023-03-21T12:24:53.454Z,4408.00
2023-03-21T12:25:53.369Z,4568.00
2023-03-21T12:26:53.404Z,4680.00
2023-03-21T12:27:53.549Z,4492.00
2023-03-21T12:28:53.406Z,4378.00
2023-03-21T12:29:53.318Z,4186.00
2023-03-21T12:30:53.418Z,3779.00
2023-03-21T12:31:53.399Z,3672.00
2023-03-21T12:32:53.320Z,3702.00
2023-03-21T12:33:53.472Z,3598.00
2023-03-21T12:34:53.240Z,3611.00
2023-03-21T12:35:53.265Z,3645.00
2023-03-21T12:36:53.226Z,3612.00